sensor_id;sensor_type;location;lat;lon;timestamp;temperature;humidity
52725;DHT22;38621;52.830;6.914;2023-02-03T00:01:53;8.20;99.90
52725;DHT22;38621;52.830;6.914;2023-02-03T00:04:19;8.20;99.90
52725;DHT22;38621;52.830;6.914;2023-02-03T00:06:45;8.20;99.90
52725;DHT22;38621;52.830;6.914;2023-02-03T00:09:11;8.30;99.90
52725;DHT22;38621;52.830;6.914;2023-02-03T00:11:37;8.30;99.90
52725;DHT22;38621;52.830;6.914;2023-02-03T00:14:03;8.30;99.90
52725;DHT22;38621;52.830;6.914;2023-02-03T00:16:30;8.30;99.90
52725;DHT22;38621;52.830;6.914;2023-02-03T00:18:55;8.30;99.90
52725;DHT22;38621;52.830;6.914;2023-02-03T00:21:21;8.30;99.90
52725;DHT22;38621;52.830;6.914;2023-02-03T00:23:47;8.40;99.90
52725;DHT22;38621;52.830;6.914;2023-02-03T00:26:15;8.40;99.90
52725;DHT22;38621;52.830;6.914;2023-02-03T00:28:41;8.40;99.90
52725;DHT22;38621;52.830;6.914;2023-02-03T00:31:14;8.30;99.90
52725;DHT22;38621;52.830;6.914;2023-02-03T00:33:40;8.30;99.90
52725;DHT22;38621;52.830;6.914;2023-02-03T00:36:06;8.30;99.90
52725;DHT22;38621;52.830;6.914;2023-02-03T00:38:31;8.30;99.90
52725;DHT22;38621;52.830;6.914;2023-02-03T00:40:57;8.30;99.90
52725;DHT22;38621;52.830;6.914;2023-02-03T00:43:23;8.30;99.90
52725;DHT22;38621;52.830;6.914;2023-02-03T00:45:48;8.30;99.90
52725;DHT22;38621;52.830;6.914;2023-02-03T00:48:14;8.30;99.90
52725;DHT22;38621;52.830;6.914;2023-02-03T00:50:40;8.30;99.90
52725;DHT22;38621;52.830;6.914;2023-02-03T00:53:06;8.30;99.90
52725;DHT22;38621;52.830;6.914;2023-02-03T00:55:32;8.30;99.90
52725;DHT22;38621;52.830;6.914;2023-02-03T00:57:57;8.30;99.90
52725;DHT22;38621;52.830;6.914;2023-02-03T01:00:23;8.40;99.90
52725;DHT22;38621;52.830;6.914;2023-02-03T01:02:49;8.40;99.90
52725;DHT22;38621;52.830;6.914;2023-02-03T01:05:14;8.40;99.90
52725;DHT22;38621;52.830;6.914;2023-02-03T01:07:40;8.30;99.90
52725;DHT22;38621;52.830;6.914;2023-02-03T01:10:06;8.30;99.90
52725;DHT22;38621;52.830;6.914;2023-02-03T01:12:32;8.30;99.90
52725;DHT22;38621;52.830;6.914;2023-02-03T01:14:58;8.30;99.90
52725;DHT22;38621;52.830;6.914;2023-02-03T01:17:24;8.30;99.90
52725;DHT22;38621;52.830;6.914;2023-02-03T01:19:51;8.30;99.90
52725;DHT22;38621;52.830;6.914;2023-02-03T01:22:16;8.30;99.90
52725;DHT22;38621;52.830;6.914;2023-02-03T01:24:42;8.30;99.90
52725;DHT22;38621;52.830;6.914;2023-02-03T01:27:08;8.30;99.90
52725;DHT22;38621;52.830;6.914;2023-02-03T01:29:33;8.30;99.90
52725;DHT22;38621;52.830;6.914;2023-02-03T01:31:59;8.30;99.90
52725;DHT22;38621;52.830;6.914;2023-02-03T01:34:25;8.30;99.90
52725;DHT22;38621;52.830;6.914;2023-02-03T01:36:51;8.30;99.90
52725;DHT22;38621;52.830;6.914;2023-02-03T01:39:16;8.30;99.90
52725;DHT22;38621;52.830;6.914;2023-02-03T01:41:42;8.30;99.90
52725;DHT22;38621;52.830;6.914;2023-02-03T01:44:38;8.30;99.90
52725;DHT22;38621;52.830;6.914;2023-02-03T01:47:12;8.40;99.90
52725;DHT22;38621;52.830;6.914;2023-02-03T01:49:40;8.30;99.90
52725;DHT22;38621;52.830;6.914;2023-02-03T01:52:08;8.30;99.90
52725;DHT22;38621;52.830;6.914;2023-02-03T01:54:37;8.30;99.90
52725;DHT22;38621;52.830;6.914;2023-02-03T01:57:11;8.30;99.90
52725;DHT22;38621;52.830;6.914;2023-02-03T01:59:38;8.30;99.90
52725;DHT22;38621;52.830;6.914;2023-02-03T02:02:06;8.30;99.90
52725;DHT22;38621;52.830;6.914;2023-02-03T02:04:38;8.30;99.90
52725;DHT22;38621;52.830;6.914;2023-02-03T02:07:08;8.30;99.90
52725;DHT22;38621;52.830;6.914;2023-02-03T02:09:34;8.30;99.90
52725;DHT22;38621;52.830;6.914;2023-02-03T02:12:00;8.30;99.90
52725;DHT22;38621;52.830;6.914;2023-02-03T02:14:26;8.30;99.90
52725;DHT22;38621;52.830;6.914;2023-02-03T02:17:00;8.30;99.90
52725;DHT22;38621;52.830;6.914;2023-02-03T02:22:33;8.30;99.90
52725;DHT22;38621;52.830;6.914;2023-02-03T02:33:40;8.30;99.90
52725;DHT22;38621;52.830;6.914;2023-02-03T02:36:41;8.30;99.90
52725;DHT22;38621;52.830;6.914;2023-02-03T02:39:23;8.30;99.90
52725;DHT22;38621;52.830;6.914;2023-02-03T02:45:55;8.20;99.90
52725;DHT22;38621;52.830;6.914;2023-02-03T02:47:53;8.20;99.90
52725;DHT22;38621;52.830;6.914;2023-02-03T02:50:26;8.20;99.90
52725;DHT22;38621;52.830;6.914;2023-02-03T02:52:56;8.20;99.90
52725;DHT22;38621;52.830;6.914;2023-02-03T02:55:26;8.20;99.90
52725;DHT22;38621;52.830;6.914;2023-02-03T02:57:56;8.20;99.90
52725;DHT22;38621;52.830;6.914;2023-02-03T03:00:22;8.20;99.90
52725;DHT22;38621;52.830;6.914;2023-02-03T03:02:48;8.20;99.90
52725;DHT22;38621;52.830;6.914;2023-02-03T03:05:16;8.20;99.90
52725;DHT22;38621;52.830;6.914;2023-02-03T03:07:54;8.20;99.90
52725;DHT22;38621;52.830;6.914;2023-02-03T03:10:24;8.20;99.90
52725;DHT22;38621;52.830;6.914;2023-02-03T03:12:57;8.20;99.90
52725;DHT22;38621;52.830;6.914;2023-02-03T03:15:26;8.10;99.90
52725;DHT22;38621;52.830;6.914;2023-02-03T03:18:15;8.20;99.90
52725;DHT22;38621;52.830;6.914;2023-02-03T03:20:45;8.20;99.90
52725;DHT22;38621;52.830;6.914;2023-02-03T03:23:23;8.20;99.90
52725;DHT22;38621;52.830;6.914;2023-02-03T03:26:10;8.10;99.90
52725;DHT22;38621;52.830;6.914;2023-02-03T03:28:48;8.20;99.90
52725;DHT22;38621;52.830;6.914;2023-02-03T03:31:16;8.10;99.90
52725;DHT22;38621;52.830;6.914;2023-02-03T03:33:43;8.10;99.90
52725;DHT22;38621;52.830;6.914;2023-02-03T03:36:31;8.10;99.90
52725;DHT22;38621;52.830;6.914;2023-02-03T03:44:28;8.20;99.90
52725;DHT22;38621;52.830;6.914;2023-02-03T03:47:02;8.20;99.90
52725;DHT22;38621;52.830;6.914;2023-02-03T03:49:30;8.20;99.90
52725;DHT22;38621;52.830;6.914;2023-02-03T03:52:02;8.20;99.90
52725;DHT22;38621;52.830;6.914;2023-02-03T03:54:30;8.20;99.90
52725;DHT22;38621;52.830;6.914;2023-02-03T03:57:06;8.20;99.90
52725;DHT22;38621;52.830;6.914;2023-02-03T03:59:36;8.20;99.90
52725;DHT22;38621;52.830;6.914;2023-02-03T04:02:04;8.20;99.90
52725;DHT22;38621;52.830;6.914;2023-02-03T04:04:31;8.20;99.90
52725;DHT22;38621;52.830;6.914;2023-02-03T04:06:57;8.20;99.90
52725;DHT22;38621;52.830;6.914;2023-02-03T04:09:23;8.20;99.90
52725;DHT22;38621;52.830;6.914;2023-02-03T04:11:49;8.20;99.90
52725;DHT22;38621;52.830;6.914;2023-02-03T04:14:29;8.30;99.90
52725;DHT22;38621;52.830;6.914;2023-02-03T04:16:55;8.20;99.90
52725;DHT22;38621;52.830;6.914;2023-02-03T04:19:22;8.30;99.90
52725;DHT22;38621;52.830;6.914;2023-02-03T04:21:47;8.20;99.90
52725;DHT22;38621;52.830;6.914;2023-02-03T04:24:13;8.30;99.90
52725;DHT22;38621;52.830;6.914;2023-02-03T04:26:39;8.30;99.90
52725;DHT22;38621;52.830;6.914;2023-02-03T04:29:05;8.20;99.90
52725;DHT22;38621;52.830;6.914;2023-02-03T04:31:31;8.30;99.90
52725;DHT22;38621;52.830;6.914;2023-02-03T04:33:56;8.30;99.90
52725;DHT22;38621;52.830;6.914;2023-02-03T04:36:22;8.20;99.90
52725;DHT22;38621;52.830;6.914;2023-02-03T04:38:48;8.30;99.90
52725;DHT22;38621;52.830;6.914;2023-02-03T04:41:14;8.30;99.90
52725;DHT22;38621;52.830;6.914;2023-02-03T04:43:40;8.30;99.90
52725;DHT22;38621;52.830;6.914;2023-02-03T04:46:06;8.30;99.90
52725;DHT22;38621;52.830;6.914;2023-02-03T04:48:32;8.60;99.90
52725;DHT22;38621;52.830;6.914;2023-02-03T04:51:05;8.30;99.90
52725;DHT22;38621;52.830;6.914;2023-02-03T04:53:31;8.30;99.90
52725;DHT22;38621;52.830;6.914;2023-02-03T04:55:57;8.30;99.90
52725;DHT22;38621;52.830;6.914;2023-02-03T04:58:23;8.30;99.90
52725;DHT22;38621;52.830;6.914;2023-02-03T05:00:51;8.30;99.90
52725;DHT22;38621;52.830;6.914;2023-02-03T05:03:18;8.40;99.90
52725;DHT22;38621;52.830;6.914;2023-02-03T05:05:43;8.40;99.90
52725;DHT22;38621;52.830;6.914;2023-02-03T05:08:09;8.30;99.90
52725;DHT22;38621;52.830;6.914;2023-02-03T05:10:35;8.40;99.90
52725;DHT22;38621;52.830;6.914;2023-02-03T05:13:01;8.30;99.90
52725;DHT22;38621;52.830;6.914;2023-02-03T05:15:26;8.30;99.90
52725;DHT22;38621;52.830;6.914;2023-02-03T05:17:53;8.30;99.90
52725;DHT22;38621;52.830;6.914;2023-02-03T05:20:19;8.30;99.90
52725;DHT22;38621;52.830;6.914;2023-02-03T05:22:45;8.30;99.90
52725;DHT22;38621;52.830;6.914;2023-02-03T05:25:11;8.30;99.90
52725;DHT22;38621;52.830;6.914;2023-02-03T05:27:38;8.40;99.90
52725;DHT22;38621;52.830;6.914;2023-02-03T05:30:04;8.30;99.90
52725;DHT22;38621;52.830;6.914;2023-02-03T05:32:30;8.40;99.90
52725;DHT22;38621;52.830;6.914;2023-02-03T05:34:56;8.40;99.90
52725;DHT22;38621;52.830;6.914;2023-02-03T05:37:22;8.40;99.90
52725;DHT22;38621;52.830;6.914;2023-02-03T05:39:48;8.40;99.90
52725;DHT22;38621;52.830;6.914;2023-02-03T05:42:13;8.40;99.90
52725;DHT22;38621;52.830;6.914;2023-02-03T05:44:39;8.40;99.90
52725;DHT22;38621;52.830;6.914;2023-02-03T05:47:05;8.40;99.90
52725;DHT22;38621;52.830;6.914;2023-02-03T05:49:30;8.40;99.90
52725;DHT22;38621;52.830;6.914;2023-02-03T05:51:56;8.40;99.90
52725;DHT22;38621;52.830;6.914;2023-02-03T05:54:22;8.40;99.90
52725;DHT22;38621;52.830;6.914;2023-02-03T05:56:48;8.40;99.90
52725;DHT22;38621;52.830;6.914;2023-02-03T05:59:13;8.40;99.90
52725;DHT22;38621;52.830;6.914;2023-02-03T06:01:39;8.50;99.90
52725;DHT22;38621;52.830;6.914;2023-02-03T06:04:05;8.40;99.90
52725;DHT22;38621;52.830;6.914;2023-02-03T06:06:31;8.50;99.90
52725;DHT22;38621;52.830;6.914;2023-02-03T06:09:01;8.50;99.90
52725;DHT22;38621;52.830;6.914;2023-02-03T06:11:27;8.50;99.90
52725;DHT22;38621;52.830;6.914;2023-02-03T06:13:54;8.50;99.90
52725;DHT22;38621;52.830;6.914;2023-02-03T06:16:20;8.50;99.90
52725;DHT22;38621;52.830;6.914;2023-02-03T06:18:46;8.50;99.90
52725;DHT22;38621;52.830;6.914;2023-02-03T06:21:12;8.50;99.90
52725;DHT22;38621;52.830;6.914;2023-02-03T06:23:38;8.60;99.90
52725;DHT22;38621;52.830;6.914;2023-02-03T06:26:04;8.60;99.90
52725;DHT22;38621;52.830;6.914;2023-02-03T06:28:29;8.60;99.90
52725;DHT22;38621;52.830;6.914;2023-02-03T06:30:58;8.60;99.90
52725;DHT22;38621;52.830;6.914;2023-02-03T06:33:23;8.60;99.90
52725;DHT22;38621;52.830;6.914;2023-02-03T06:35:49;8.70;99.90
52725;DHT22;38621;52.830;6.914;2023-02-03T06:38:15;8.70;99.90
52725;DHT22;38621;52.830;6.914;2023-02-03T06:40:40;8.70;99.90
52725;DHT22;38621;52.830;6.914;2023-02-03T06:43:06;8.70;99.90
52725;DHT22;38621;52.830;6.914;2023-02-03T06:45:32;8.70;99.90
52725;DHT22;38621;52.830;6.914;2023-02-03T06:47:59;8.80;99.90
52725;DHT22;38621;52.830;6.914;2023-02-03T06:50:24;8.70;99.90
52725;DHT22;38621;52.830;6.914;2023-02-03T06:52:50;8.60;99.90
52725;DHT22;38621;52.830;6.914;2023-02-03T06:55:16;8.60;99.90
52725;DHT22;38621;52.830;6.914;2023-02-03T06:57:43;8.60;99.90
52725;DHT22;38621;52.830;6.914;2023-02-03T07:00:10;8.60;99.90
52725;DHT22;38621;52.830;6.914;2023-02-03T07:02:36;8.60;99.90
52725;DHT22;38621;52.830;6.914;2023-02-03T07:05:02;8.70;99.90
52725;DHT22;38621;52.830;6.914;2023-02-03T07:07:28;8.70;99.90
52725;DHT22;38621;52.830;6.914;2023-02-03T07:09:56;8.70;99.90
52725;DHT22;38621;52.830;6.914;2023-02-03T07:12:22;8.70;99.90
52725;DHT22;38621;52.830;6.914;2023-02-03T07:14:48;8.70;99.90
52725;DHT22;38621;52.830;6.914;2023-02-03T07:17:14;8.70;99.90
52725;DHT22;38621;52.830;6.914;2023-02-03T07:19:39;8.70;99.90
52725;DHT22;38621;52.830;6.914;2023-02-03T07:22:05;8.80;99.90
52725;DHT22;38621;52.830;6.914;2023-02-03T07:24:31;8.80;99.90
52725;DHT22;38621;52.830;6.914;2023-02-03T07:26:56;8.80;99.90
52725;DHT22;38621;52.830;6.914;2023-02-03T07:29:22;8.70;99.90
52725;DHT22;38621;52.830;6.914;2023-02-03T07:31:48;8.80;99.90
52725;DHT22;38621;52.830;6.914;2023-02-03T07:34:13;8.80;99.90
52725;DHT22;38621;52.830;6.914;2023-02-03T07:36:39;8.80;99.90
52725;DHT22;38621;52.830;6.914;2023-02-03T07:39:05;8.80;99.90
52725;DHT22;38621;52.830;6.914;2023-02-03T07:41:31;8.70;99.90
52725;DHT22;38621;52.830;6.914;2023-02-03T07:43:57;8.60;99.90
52725;DHT22;38621;52.830;6.914;2023-02-03T07:46:23;8.40;99.90
52725;DHT22;38621;52.830;6.914;2023-02-03T07:48:48;8.30;99.90
52725;DHT22;38621;52.830;6.914;2023-02-03T07:51:14;8.20;99.90
52725;DHT22;38621;52.830;6.914;2023-02-03T07:53:40;8.20;99.90
52725;DHT22;38621;52.830;6.914;2023-02-03T07:56:05;8.20;99.90
52725;DHT22;38621;52.830;6.914;2023-02-03T07:58:32;8.20;99.90
52725;DHT22;38621;52.830;6.914;2023-02-03T08:00:58;8.20;99.90
52725;DHT22;38621;52.830;6.914;2023-02-03T08:03:24;8.10;99.90
52725;DHT22;38621;52.830;6.914;2023-02-03T08:05:50;8.10;99.90
52725;DHT22;38621;52.830;6.914;2023-02-03T08:08:16;8.10;99.90
52725;DHT22;38621;52.830;6.914;2023-02-03T08:10:42;8.10;99.90
52725;DHT22;38621;52.830;6.914;2023-02-03T08:13:08;8.10;99.90
52725;DHT22;38621;52.830;6.914;2023-02-03T08:15:34;8.10;99.90
52725;DHT22;38621;52.830;6.914;2023-02-03T08:17:59;8.00;99.90
52725;DHT22;38621;52.830;6.914;2023-02-03T08:20:25;8.00;99.90
52725;DHT22;38621;52.830;6.914;2023-02-03T08:22:52;8.00;99.90
52725;DHT22;38621;52.830;6.914;2023-02-03T08:25:18;8.00;99.90
52725;DHT22;38621;52.830;6.914;2023-02-03T08:27:43;7.90;99.90
52725;DHT22;38621;52.830;6.914;2023-02-03T08:30:11;8.00;99.90
52725;DHT22;38621;52.830;6.914;2023-02-03T08:32:37;8.00;99.90
52725;DHT22;38621;52.830;6.914;2023-02-03T08:35:04;8.10;99.90
52725;DHT22;38621;52.830;6.914;2023-02-03T08:37:29;8.20;99.90
52725;DHT22;38621;52.830;6.914;2023-02-03T08:39:57;8.20;99.90
52725;DHT22;38621;52.830;6.914;2023-02-03T08:42:23;8.20;99.90
52725;DHT22;38621;52.830;6.914;2023-02-03T08:44:49;8.30;99.90
52725;DHT22;38621;52.830;6.914;2023-02-03T08:47:15;8.30;99.90
52725;DHT22;38621;52.830;6.914;2023-02-03T08:49:41;8.30;99.90
52725;DHT22;38621;52.830;6.914;2023-02-03T08:52:09;8.30;99.90
52725;DHT22;38621;52.830;6.914;2023-02-03T08:54:35;8.30;99.90
52725;DHT22;38621;52.830;6.914;2023-02-03T08:57:01;8.30;99.90
52725;DHT22;38621;52.830;6.914;2023-02-03T08:59:27;8.20;99.90
52725;DHT22;38621;52.830;6.914;2023-02-03T09:01:54;8.20;99.90
52725;DHT22;38621;52.830;6.914;2023-02-03T09:04:20;8.20;99.90
52725;DHT22;38621;52.830;6.914;2023-02-03T09:06:53;8.30;99.90
52725;DHT22;38621;52.830;6.914;2023-02-03T09:09:20;8.20;99.90
52725;DHT22;38621;52.830;6.914;2023-02-03T09:11:45;8.30;99.90
52725;DHT22;38621;52.830;6.914;2023-02-03T09:14:12;8.20;99.90
52725;DHT22;38621;52.830;6.914;2023-02-03T09:16:38;8.20;99.90
52725;DHT22;38621;52.830;6.914;2023-02-03T09:19:04;8.20;99.90
52725;DHT22;38621;52.830;6.914;2023-02-03T09:21:29;8.20;99.90
52725;DHT22;38621;52.830;6.914;2023-02-03T09:23:55;8.20;99.90
52725;DHT22;38621;52.830;6.914;2023-02-03T09:26:24;8.20;99.90
52725;DHT22;38621;52.830;6.914;2023-02-03T09:28:51;8.30;99.90
52725;DHT22;38621;52.830;6.914;2023-02-03T09:31:17;8.30;99.90
52725;DHT22;38621;52.830;6.914;2023-02-03T09:33:44;8.30;99.90
52725;DHT22;38621;52.830;6.914;2023-02-03T09:36:11;8.30;99.90
52725;DHT22;38621;52.830;6.914;2023-02-03T09:38:37;8.30;99.90
52725;DHT22;38621;52.830;6.914;2023-02-03T09:46:49;8.40;99.90
52725;DHT22;38621;52.830;6.914;2023-02-03T09:49:44;8.40;99.90
52725;DHT22;38621;52.830;6.914;2023-02-03T09:54:55;8.60;99.90
52725;DHT22;38621;52.830;6.914;2023-02-03T09:57:25;8.60;99.90
52725;DHT22;38621;52.830;6.914;2023-02-03T09:59:52;8.60;99.90
52725;DHT22;38621;52.830;6.914;2023-02-03T10:02:40;8.70;99.90
52725;DHT22;38621;52.830;6.914;2023-02-03T10:10:37;8.80;99.90
52725;DHT22;38621;52.830;6.914;2023-02-03T10:13:38;8.80;99.90
52725;DHT22;38621;52.830;6.914;2023-02-03T10:16:45;8.80;99.90
52725;DHT22;38621;52.830;6.914;2023-02-03T10:19:17;8.90;99.90
52725;DHT22;38621;52.830;6.914;2023-02-03T10:21:57;8.90;99.90
52725;DHT22;38621;52.830;6.914;2023-02-03T10:24:31;8.90;99.90
52725;DHT22;38621;52.830;6.914;2023-02-03T10:27:00;9.00;99.90
52725;DHT22;38621;52.830;6.914;2023-02-03T10:29:34;9.00;99.90
52725;DHT22;38621;52.830;6.914;2023-02-03T10:32:00;9.00;99.90
52725;DHT22;38621;52.830;6.914;2023-02-03T10:34:26;9.00;99.90
52725;DHT22;38621;52.830;6.914;2023-02-03T10:37:17;9.00;99.90
52725;DHT22;38621;52.830;6.914;2023-02-03T10:39:50;9.00;99.90
52725;DHT22;38621;52.830;6.914;2023-02-03T10:42:16;9.00;99.90
52725;DHT22;38621;52.830;6.914;2023-02-03T10:44:47;9.00;99.90
52725;DHT22;38621;52.830;6.914;2023-02-03T10:47:34;9.10;99.90
52725;DHT22;38621;52.830;6.914;2023-02-03T10:50:12;9.20;99.90
52725;DHT22;38621;52.830;6.914;2023-02-03T10:52:39;9.30;99.90
52725;DHT22;38621;52.830;6.914;2023-02-03T10:55:08;9.40;99.90
52725;DHT22;38621;52.830;6.914;2023-02-03T10:57:53;9.40;99.90
52725;DHT22;38621;52.830;6.914;2023-02-03T11:02:58;9.50;99.90
52725;DHT22;38621;52.830;6.914;2023-02-03T11:05:25;9.40;99.90
52725;DHT22;38621;52.830;6.914;2023-02-03T11:07:51;9.30;99.90
52725;DHT22;38621;52.830;6.914;2023-02-03T11:10:32;9.30;99.90
52725;DHT22;38621;52.830;6.914;2023-02-03T11:15:55;9.20;99.90
52725;DHT22;38621;52.830;6.914;2023-02-03T11:18:58;9.20;99.90
52725;DHT22;38621;52.830;6.914;2023-02-03T11:26:59;9.10;99.90
52725;DHT22;38621;52.830;6.914;2023-02-03T11:29:34;9.10;99.90
52725;DHT22;38621;52.830;6.914;2023-02-03T11:32:05;9.10;99.90
52725;DHT22;38621;52.830;6.914;2023-02-03T11:34:39;9.10;99.90
52725;DHT22;38621;52.830;6.914;2023-02-03T11:37:32;9.10;99.90
52725;DHT22;38621;52.830;6.914;2023-02-03T11:42:43;9.10;99.90
52725;DHT22;38621;52.830;6.914;2023-02-03T11:48:01;9.00;99.90
52725;DHT22;38621;52.830;6.914;2023-02-03T11:56:17;9.10;99.90
52725;DHT22;38621;52.830;6.914;2023-02-03T12:09:44;9.00;99.90
52725;DHT22;38621;52.830;6.914;2023-02-03T12:12:50;9.10;99.90
52725;DHT22;38621;52.830;6.914;2023-02-03T12:26:46;9.20;99.90
52725;DHT22;38621;52.830;6.914;2023-02-03T12:35:33;9.20;99.90
52725;DHT22;38621;52.830;6.914;2023-02-03T12:41:13;9.20;99.90
52725;DHT22;38621;52.830;6.914;2023-02-03T12:43:45;9.20;99.90
52725;DHT22;38621;52.830;6.914;2023-02-03T12:51:42;9.20;99.90
52725;DHT22;38621;52.830;6.914;2023-02-03T12:54:32;9.10;99.90
52725;DHT22;38621;52.830;6.914;2023-02-03T13:05:49;9.00;99.90
52725;DHT22;38621;52.830;6.914;2023-02-03T13:08:30;8.90;99.90
52725;DHT22;38621;52.830;6.914;2023-02-03T13:13:41;8.70;99.90
52725;DHT22;38621;52.830;6.914;2023-02-03T13:16:09;8.70;99.90
52725;DHT22;38621;52.830;6.914;2023-02-03T13:18:38;8.70;99.90
52725;DHT22;38621;52.830;6.914;2023-02-03T13:21:11;8.70;99.90
52725;DHT22;38621;52.830;6.914;2023-02-03T13:23:41;8.70;99.90
52725;DHT22;38621;52.830;6.914;2023-02-03T13:42:17;8.70;99.90
52725;DHT22;38621;52.830;6.914;2023-02-03T13:44:45;8.70;99.90
52725;DHT22;38621;52.830;6.914;2023-02-03T13:47:23;8.60;99.90
52725;DHT22;38621;52.830;6.914;2023-02-03T13:49:54;8.60;99.90
52725;DHT22;38621;52.830;6.914;2023-02-03T13:54:52;8.60;99.90
52725;DHT22;38621;52.830;6.914;2023-02-03T13:59:59;8.60;99.90
52725;DHT22;38621;52.830;6.914;2023-02-03T14:04:53;8.60;99.90
52725;DHT22;38621;52.830;6.914;2023-02-03T14:12:54;8.60;99.90
52725;DHT22;38621;52.830;6.914;2023-02-03T14:15:28;8.60;99.90
52725;DHT22;38621;52.830;6.914;2023-02-03T14:23:16;8.50;99.90
52725;DHT22;38621;52.830;6.914;2023-02-03T14:25:44;8.60;99.90
52725;DHT22;38621;52.830;6.914;2023-02-03T14:28:18;8.60;99.90
52725;DHT22;38621;52.830;6.914;2023-02-03T14:34:04;8.60;99.90
52725;DHT22;38621;52.830;6.914;2023-02-03T14:50:17;8.50;99.90
52725;DHT22;38621;52.830;6.914;2023-02-03T14:58:12;8.40;99.90
52725;DHT22;38621;52.830;6.914;2023-02-03T15:00:39;8.50;99.90
52725;DHT22;38621;52.830;6.914;2023-02-03T15:05:39;8.40;99.90
52725;DHT22;38621;52.830;6.914;2023-02-03T15:08:28;8.40;99.90
52725;DHT22;38621;52.830;6.914;2023-02-03T15:10:54;8.40;99.90
52725;DHT22;38621;52.830;6.914;2023-02-03T15:13:30;8.30;99.90
52725;DHT22;38621;52.830;6.914;2023-02-03T15:15:59;8.30;99.90
52725;DHT22;38621;52.830;6.914;2023-02-03T15:20:56;8.30;99.90
52725;DHT22;38621;52.830;6.914;2023-02-03T15:23:25;8.30;99.90
52725;DHT22;38621;52.830;6.914;2023-02-03T15:25:56;8.30;99.90
52725;DHT22;38621;52.830;6.914;2023-02-03T15:28:24;8.20;99.90
52725;DHT22;38621;52.830;6.914;2023-02-03T15:31:17;8.20;99.90
52725;DHT22;38621;52.830;6.914;2023-02-03T15:33:44;8.20;99.90
52725;DHT22;38621;52.830;6.914;2023-02-03T15:36:24;8.20;99.90
52725;DHT22;38621;52.830;6.914;2023-02-03T15:38:59;8.10;99.90
52725;DHT22;38621;52.830;6.914;2023-02-03T15:41:27;8.10;99.90
52725;DHT22;38621;52.830;6.914;2023-02-03T15:44:01;8.10;99.90
52725;DHT22;38621;52.830;6.914;2023-02-03T15:46:41;8.00;99.90
52725;DHT22;38621;52.830;6.914;2023-02-03T15:49:15;8.00;99.90
52725;DHT22;38621;52.830;6.914;2023-02-03T15:51:46;8.00;99.90
52725;DHT22;38621;52.830;6.914;2023-02-03T15:54:22;8.00;99.90
52725;DHT22;38621;52.830;6.914;2023-02-03T15:59:33;8.00;99.90
52725;DHT22;38621;52.830;6.914;2023-02-03T16:02:06;7.90;99.90
52725;DHT22;38621;52.830;6.914;2023-02-03T16:04:36;7.90;99.90
52725;DHT22;38621;52.830;6.914;2023-02-03T16:07:02;7.90;99.90
52725;DHT22;38621;52.830;6.914;2023-02-03T16:09:32;7.90;99.90
52725;DHT22;38621;52.830;6.914;2023-02-03T16:14:37;7.70;99.90
52725;DHT22;38621;52.830;6.914;2023-02-03T16:17:03;7.70;99.90
52725;DHT22;38621;52.830;6.914;2023-02-03T16:19:30;7.70;99.90
52725;DHT22;38621;52.830;6.914;2023-02-03T16:22:26;7.70;99.90
52725;DHT22;38621;52.830;6.914;2023-02-03T16:24:52;7.70;99.90
52725;DHT22;38621;52.830;6.914;2023-02-03T16:27:38;7.60;99.90
52725;DHT22;38621;52.830;6.914;2023-02-03T16:33:14;7.60;99.90
52725;DHT22;38621;52.830;6.914;2023-02-03T16:36:11;7.60;99.90
52725;DHT22;38621;52.830;6.914;2023-02-03T16:38:57;7.50;99.90
52725;DHT22;38621;52.830;6.914;2023-02-03T16:41:44;7.50;99.90
52725;DHT22;38621;52.830;6.914;2023-02-03T16:44:29;7.50;99.90
52725;DHT22;38621;52.830;6.914;2023-02-03T16:47:28;7.40;99.90
52725;DHT22;38621;52.830;6.914;2023-02-03T16:50:14;7.40;99.90
52725;DHT22;38621;52.830;6.914;2023-02-03T16:52:59;7.40;99.90
52725;DHT22;38621;52.830;6.914;2023-02-03T16:55:25;7.40;99.90
52725;DHT22;38621;52.830;6.914;2023-02-03T16:57:50;7.40;99.90
52725;DHT22;38621;52.830;6.914;2023-02-03T17:00:17;7.40;99.90
52725;DHT22;38621;52.830;6.914;2023-02-03T17:02:45;7.50;99.90
52725;DHT22;38621;52.830;6.914;2023-02-03T17:05:11;7.50;99.90
52725;DHT22;38621;52.830;6.914;2023-02-03T17:07:36;7.50;99.90
52725;DHT22;38621;52.830;6.914;2023-02-03T17:10:02;7.40;99.90
52725;DHT22;38621;52.830;6.914;2023-02-03T17:12:28;7.50;99.90
52725;DHT22;38621;52.830;6.914;2023-02-03T17:14:56;7.50;99.90
52725;DHT22;38621;52.830;6.914;2023-02-03T17:17:22;7.50;99.90
52725;DHT22;38621;52.830;6.914;2023-02-03T17:19:48;7.50;99.90
52725;DHT22;38621;52.830;6.914;2023-02-03T17:22:14;7.50;99.90
52725;DHT22;38621;52.830;6.914;2023-02-03T17:24:40;7.50;99.90
52725;DHT22;38621;52.830;6.914;2023-02-03T17:27:06;7.50;99.90
52725;DHT22;38621;52.830;6.914;2023-02-03T17:29:32;7.50;99.90
52725;DHT22;38621;52.830;6.914;2023-02-03T17:31:57;7.50;99.90
52725;DHT22;38621;52.830;6.914;2023-02-03T17:34:23;7.40;99.90
52725;DHT22;38621;52.830;6.914;2023-02-03T17:36:48;7.50;99.90
52725;DHT22;38621;52.830;6.914;2023-02-03T17:39:14;7.50;99.90
52725;DHT22;38621;52.830;6.914;2023-02-03T17:41:40;7.50;99.90
52725;DHT22;38621;52.830;6.914;2023-02-03T17:44:06;7.50;99.90
52725;DHT22;38621;52.830;6.914;2023-02-03T17:46:31;7.50;99.90
52725;DHT22;38621;52.830;6.914;2023-02-03T17:48:57;7.50;99.90
52725;DHT22;38621;52.830;6.914;2023-02-03T17:51:23;7.40;99.90
52725;DHT22;38621;52.830;6.914;2023-02-03T17:53:51;7.50;99.90
52725;DHT22;38621;52.830;6.914;2023-02-03T17:56:19;7.50;99.90
52725;DHT22;38621;52.830;6.914;2023-02-03T17:58:47;7.40;99.90
52725;DHT22;38621;52.830;6.914;2023-02-03T18:01:15;7.50;99.90
52725;DHT22;38621;52.830;6.914;2023-02-03T18:03:46;7.50;99.90
52725;DHT22;38621;52.830;6.914;2023-02-03T18:06:15;7.50;99.90
52725;DHT22;38621;52.830;6.914;2023-02-03T18:08:41;7.40;99.90
52725;DHT22;38621;52.830;6.914;2023-02-03T18:11:07;7.40;99.90
52725;DHT22;38621;52.830;6.914;2023-02-03T18:13:38;7.50;99.90
52725;DHT22;38621;52.830;6.914;2023-02-03T18:16:06;7.40;99.90
52725;DHT22;38621;52.830;6.914;2023-02-03T18:18:33;7.40;99.90
52725;DHT22;38621;52.830;6.914;2023-02-03T18:21:05;7.40;99.90
52725;DHT22;38621;52.830;6.914;2023-02-03T18:23:32;7.40;99.90
52725;DHT22;38621;52.830;6.914;2023-02-03T18:26:01;7.30;99.90
52725;DHT22;38621;52.830;6.914;2023-02-03T18:28:27;7.30;99.90
52725;DHT22;38621;52.830;6.914;2023-02-03T18:31:04;7.30;99.90
52725;DHT22;38621;52.830;6.914;2023-02-03T18:33:31;7.30;99.90
52725;DHT22;38621;52.830;6.914;2023-02-03T18:35:59;7.30;99.90
52725;DHT22;38621;52.830;6.914;2023-02-03T18:38:26;7.40;99.90
52725;DHT22;38621;52.830;6.914;2023-02-03T18:40:52;7.30;99.90
52725;DHT22;38621;52.830;6.914;2023-02-03T18:43:22;7.30;99.90
52725;DHT22;38621;52.830;6.914;2023-02-03T18:45:48;7.30;99.90
52725;DHT22;38621;52.830;6.914;2023-02-03T18:48:14;7.30;99.90
52725;DHT22;38621;52.830;6.914;2023-02-03T18:50:41;7.30;99.90
52725;DHT22;38621;52.830;6.914;2023-02-03T18:53:07;7.30;99.90
52725;DHT22;38621;52.830;6.914;2023-02-03T18:55:33;7.30;99.90